Grizzly Air Cargo 5380


PAKN
King Salmon Airport
King Salmon, Alaska, US
PANI
Aniak Airport
Aniak, Alaska, US

Activity Log

Date Flight Route Aircraft Duration
No Flights Yet

Route Details

Aircraft Information
Primary: Saab 340AF
Backup: Not Available
Route Data
Distance: 220nm
Sched. Duration: 1h 00m
Avg. Duration: 0h 00m (-100m)
Times Flown: 0
Recm'd Route: AKN Q51 SLIIM ANI
Planned Altitude: 20,000ft
Origin Wx: PAKN 221554Z AUTO 16004KT 10SM CLR 02/M01 A2986 RMK AO2 SLP110 T00171006 TSNO
Dest. Wx: PANI 221556Z AUTO 15015KT 10SM BKN060 03/00 A2977 RMK AO2 SLP072 T00330000
Notes:

Financial History
Total Freight: 0lbs
Average Load: 0lbs/flt
Fuel Used: 0lbs
Avg. Fuel Used: 0lbs/flt
Fuel Expense: $0
Avg. Fuel Expense: $0
Avg. Fuel Cost: $0/lbs
Total Gross Income: $0
Pilot Pay: $0
Total Expenses: $0
Total Revenue: $0
Average Revenue: $0